createdAt,value
2023-11-30T00:00:00.264Z,97
2023-11-30T00:02:00.170Z,97
2023-11-30T00:04:00.331Z,97
2023-11-30T00:06:00.289Z,97
2023-11-30T00:08:00.222Z,97
2023-11-30T00:10:00.267Z,97
2023-11-30T00:12:00.348Z,97
2023-11-30T00:14:00.118Z,97
2023-11-30T00:16:00.148Z,97
2023-11-30T00:18:00.205Z,98
2023-11-30T00:20:00.234Z,97
2023-11-30T00:22:00.172Z,98
2023-11-30T00:24:00.111Z,98
2023-11-30T00:26:00.139Z,98
2023-11-30T00:28:00.117Z,98
2023-11-30T00:30:00.225Z,98
2023-11-30T00:32:00.208Z,98
2023-11-30T00:34:00.116Z,98
2023-11-30T00:36:00.236Z,98
2023-11-30T00:38:00.088Z,98
2023-11-30T00:40:00.232Z,98
2023-11-30T00:42:00.373Z,98
2023-11-30T00:44:00.133Z,98
2023-11-30T00:46:07.009Z,98
2023-11-30T00:48:00.245Z,98
2023-11-30T00:50:00.278Z,98
2023-11-30T00:52:00.261Z,98
2023-11-30T00:54:00.115Z,98
2023-11-30T00:56:00.187Z,98
2023-11-30T00:58:00.124Z,98
2023-11-30T01:00:00.438Z,98
2023-11-30T01:02:00.255Z,98
2023-11-30T01:04:00.397Z,98
2023-11-30T01:06:00.168Z,98
2023-11-30T01:08:00.119Z,98
2023-11-30T01:10:00.241Z,98
2023-11-30T01:12:00.259Z,98
2023-11-30T01:14:00.232Z,98
2023-11-30T01:16:00.175Z,98
2023-11-30T01:18:00.369Z,98
2023-11-30T01:20:00.305Z,98
2023-11-30T01:22:00.094Z,98
2023-11-30T01:24:00.363Z,98
2023-11-30T01:26:00.080Z,98
2023-11-30T01:28:00.166Z,98
2023-11-30T01:30:00.285Z,98
2023-11-30T01:32:00.098Z,98
2023-11-30T01:34:00.121Z,98
2023-11-30T01:36:00.342Z,98
2023-11-30T01:38:00.103Z,98
2023-11-30T01:40:00.241Z,98
2023-11-30T01:42:00.979Z,98
2023-11-30T01:44:00.209Z,98
2023-11-30T01:46:03.490Z,98
2023-11-30T01:48:00.147Z,98
2023-11-30T01:50:00.268Z,98
2023-11-30T01:52:00.225Z,98
2023-11-30T01:54:00.107Z,98
2023-11-30T01:56:00.285Z,98
2023-11-30T01:58:00.213Z,98
2023-11-30T02:00:00.327Z,98
2023-11-30T02:02:00.186Z,98
2023-11-30T02:04:00.362Z,98
2023-11-30T02:06:00.145Z,98
2023-11-30T02:08:00.174Z,98
2023-11-30T02:10:00.324Z,98
2023-11-30T02:12:00.091Z,98
2023-11-30T02:14:00.186Z,98
2023-11-30T02:16:00.242Z,98
2023-11-30T02:18:00.276Z,98
2023-11-30T02:20:00.276Z,98
2023-11-30T02:22:00.099Z,98
2023-11-30T02:24:00.165Z,98
2023-11-30T02:26:00.226Z,98
2023-11-30T02:28:00.094Z,98
2023-11-30T02:30:00.409Z,98
2023-11-30T02:32:00.229Z,98
2023-11-30T02:34:00.165Z,98
2023-11-30T02:36:00.352Z,98
2023-11-30T02:38:00.176Z,98
2023-11-30T02:40:00.299Z,98
2023-11-30T02:42:00.187Z,98
2023-11-30T02:44:00.183Z,99
2023-11-30T02:46:00.158Z,98
2023-11-30T02:48:00.291Z,98
2023-11-30T02:50:00.267Z,98
2023-11-30T02:52:00.234Z,98
2023-11-30T02:54:00.108Z,98
2023-11-30T02:56:00.106Z,98
2023-11-30T02:58:00.098Z,98
2023-11-30T03:00:00.231Z,98
2023-11-30T03:02:00.279Z,98
2023-11-30T03:04:00.166Z,99
2023-11-30T03:06:00.160Z,99
2023-11-30T03:08:00.119Z,98
2023-11-30T03:10:00.258Z,99
2023-11-30T03:12:00.129Z,99
2023-11-30T03:14:00.098Z,99
2023-11-30T03:16:00.293Z,99
2023-11-30T03:18:00.359Z,99
2023-11-30T03:20:00.331Z,99
2023-11-30T03:22:00.115Z,99
2023-11-30T03:24:00.134Z,99
2023-11-30T03:26:00.089Z,99
2023-11-30T03:28:00.103Z,99
2023-11-30T03:30:00.301Z,99
2023-11-30T03:32:00.150Z,99
2023-11-30T03:34:00.096Z,99
2023-11-30T03:36:00.199Z,99
2023-11-30T03:38:00.113Z,99
2023-11-30T03:40:00.303Z,99
2023-11-30T03:42:00.283Z,99
2023-11-30T03:44:00.107Z,99
2023-11-30T03:46:00.128Z,99
2023-11-30T03:48:00.284Z,99
2023-11-30T03:50:00.229Z,99
2023-11-30T03:52:00.244Z,99
2023-11-30T03:54:00.241Z,99
2023-11-30T03:56:00.102Z,99
2023-11-30T03:58:00.165Z,99
2023-11-30T04:00:00.283Z,99
2023-11-30T04:02:00.307Z,99
2023-11-30T04:04:00.268Z,99
2023-11-30T04:06:00.143Z,99
2023-11-30T04:08:00.192Z,99
2023-11-30T04:10:00.249Z,99
2023-11-30T04:12:00.269Z,99
2023-11-30T04:14:00.077Z,99
2023-11-30T04:16:00.272Z,99
2023-11-30T04:18:00.193Z,99
2023-11-30T04:20:00.278Z,99
2023-11-30T04:22:00.098Z,99
2023-11-30T04:24:00.197Z,99
2023-11-30T04:26:00.085Z,99
2023-11-30T04:28:00.204Z,99
2023-11-30T04:30:00.225Z,99
2023-11-30T04:32:00.101Z,99
2023-11-30T04:34:00.152Z,99
2023-11-30T04:36:00.171Z,99
2023-11-30T04:38:00.236Z,99
2023-11-30T04:40:00.324Z,99
2023-11-30T04:42:00.151Z,99
2023-11-30T04:44:00.107Z,99
2023-11-30T04:46:00.113Z,99
2023-11-30T04:48:00.257Z,99
2023-11-30T04:50:00.281Z,99
2023-11-30T04:52:00.130Z,99
2023-11-30T04:54:00.258Z,99
2023-11-30T04:56:00.282Z,99
2023-11-30T04:58:00.215Z,99
2023-11-30T05:00:00.285Z,99
2023-11-30T05:02:00.928Z,99
2023-11-30T05:04:00.531Z,99
2023-11-30T05:06:00.369Z,99
2023-11-30T05:08:00.110Z,99
2023-11-30T05:10:00.316Z,99
2023-11-30T05:12:00.241Z,99
2023-11-30T05:14:00.164Z,99
2023-11-30T05:16:00.166Z,99
2023-11-30T05:18:00.330Z,99
2023-11-30T05:20:00.311Z,99
2023-11-30T05:22:00.266Z,99
2023-11-30T05:24:00.292Z,99
2023-11-30T05:26:00.081Z,99
2023-11-30T05:28:00.361Z,99
2023-11-30T05:30:00.450Z,99
2023-11-30T05:32:00.090Z,99
2023-11-30T05:34:00.112Z,99
2023-11-30T05:36:00.470Z,99
2023-11-30T05:38:00.197Z,99
2023-11-30T05:40:00.334Z,99
2023-11-30T05:42:00.160Z,99
2023-11-30T05:44:00.171Z,99
2023-11-30T05:46:00.099Z,99
2023-11-30T05:48:00.220Z,99
2023-11-30T05:50:00.221Z,99
2023-11-30T05:52:00.217Z,99
2023-11-30T05:54:00.220Z,99
2023-11-30T05:56:00.226Z,99
2023-11-30T05:58:00.225Z,99
2023-11-30T06:00:00.266Z,99
2023-11-30T06:02:00.161Z,99
2023-11-30T06:04:00.273Z,99
2023-11-30T06:06:00.127Z,99
2023-11-30T06:08:00.220Z,99
2023-11-30T06:10:00.278Z,99
2023-11-30T06:12:00.118Z,99
2023-11-30T06:14:01.805Z,99
2023-11-30T06:16:00.124Z,99
2023-11-30T06:18:00.375Z,99
2023-11-30T06:20:01.376Z,99
2023-11-30T06:22:00.099Z,99
2023-11-30T06:24:00.312Z,99
2023-11-30T06:26:00.088Z,99
2023-11-30T06:28:00.219Z,99
2023-11-30T06:30:00.281Z,99
2023-11-30T06:32:00.086Z,99
2023-11-30T06:34:00.260Z,99
2023-11-30T06:36:00.198Z,99
2023-11-30T06:38:00.095Z,99
2023-11-30T06:40:00.306Z,99
2023-11-30T06:42:00.107Z,99
2023-11-30T06:44:00.101Z,99
2023-11-30T06:46:00.099Z,99
2023-11-30T06:48:00.274Z,99
2023-11-30T06:50:00.252Z,99
2023-11-30T06:52:01.601Z,99
2023-11-30T06:54:00.349Z,99
2023-11-30T06:56:00.106Z,99
2023-11-30T06:58:00.117Z,99
2023-11-30T07:00:00.488Z,99
2023-11-30T07:02:00.112Z,99
2023-11-30T07:04:00.425Z,99
2023-11-30T07:06:00.253Z,99
2023-11-30T07:08:00.123Z,99
2023-11-30T07:10:00.215Z,99
2023-11-30T07:12:00.123Z,99
2023-11-30T07:14:00.171Z,99
2023-11-30T07:16:00.223Z,99
2023-11-30T07:18:00.264Z,99
2023-11-30T07:20:00.295Z,99
2023-11-30T07:22:00.195Z,99
2023-11-30T07:24:00.401Z,99
2023-11-30T07:26:00.182Z,99
2023-11-30T07:28:00.090Z,99
2023-11-30T07:30:00.316Z,99
2023-11-30T07:32:00.127Z,99
2023-11-30T07:34:00.201Z,99
2023-11-30T07:36:00.194Z,99
2023-11-30T07:38:00.088Z,99
2023-11-30T07:40:00.302Z,99
2023-11-30T07:42:00.124Z,99
2023-11-30T07:44:00.123Z,99
2023-11-30T07:46:00.299Z,99
2023-11-30T07:48:00.483Z,99
2023-11-30T07:50:00.248Z,99
2023-11-30T07:52:00.176Z,99
2023-11-30T07:54:00.155Z,99
2023-11-30T07:56:00.228Z,99
2023-11-30T07:58:00.134Z,99
2023-11-30T08:00:00.500Z,99
2023-11-30T08:02:00.111Z,99
2023-11-30T08:04:00.318Z,99
2023-11-30T08:06:00.236Z,99
2023-11-30T08:08:00.154Z,99
2023-11-30T08:10:00.302Z,99
2023-11-30T08:12:00.276Z,99
2023-11-30T08:14:00.224Z,99
2023-11-30T08:16:00.162Z,99
2023-11-30T08:18:00.160Z,99
2023-11-30T08:20:00.292Z,99
2023-11-30T08:22:00.160Z,99
2023-11-30T08:24:00.212Z,99
2023-11-30T08:26:00.121Z,98
2023-11-30T08:28:00.268Z,98
2023-11-30T08:30:00.290Z,98
2023-11-30T08:32:00.193Z,99
2023-11-30T08:34:00.161Z,98
2023-11-30T08:36:00.111Z,98
2023-11-30T08:38:00.219Z,98
2023-11-30T08:40:00.220Z,99
2023-11-30T08:42:00.097Z,98
2023-11-30T08:44:00.119Z,98
2023-11-30T08:46:00.215Z,98
2023-11-30T08:48:00.153Z,98
2023-11-30T08:50:00.211Z,98
2023-11-30T08:52:00.183Z,98
2023-11-30T08:54:00.117Z,98
2023-11-30T08:56:00.111Z,98
2023-11-30T08:58:00.176Z,98
2023-11-30T09:00:00.506Z,98
2023-11-30T09:02:00.346Z,98
2023-11-30T09:04:00.188Z,98
2023-11-30T09:06:00.146Z,98
2023-11-30T09:08:00.139Z,98
2023-11-30T09:10:00.323Z,98
2023-11-30T09:12:00.105Z,98
2023-11-30T09:14:00.214Z,98
2023-11-30T09:16:00.154Z,98
2023-11-30T09:18:00.185Z,98
2023-11-30T09:20:00.235Z,97
2023-11-30T09:22:00.089Z,97
2023-11-30T09:24:00.274Z,97
2023-11-30T09:26:00.123Z,97
2023-11-30T09:28:00.121Z,97
2023-11-30T09:30:00.301Z,97
2023-11-30T09:32:00.893Z,97
2023-11-30T09:34:00.096Z,97
2023-11-30T09:36:00.215Z,97
2023-11-30T09:38:01.074Z,97
2023-11-30T09:40:00.329Z,96
2023-11-30T09:42:00.226Z,96
2023-11-30T09:44:00.392Z,96
2023-11-30T09:46:00.095Z,96
2023-11-30T09:48:00.259Z,96
2023-11-30T09:50:00.269Z,96
2023-11-30T09:52:00.233Z,96
2023-11-30T09:54:00.094Z,96
2023-11-30T09:56:00.113Z,96
2023-11-30T09:58:00.125Z,96
2023-11-30T10:00:00.407Z,95
2023-11-30T10:02:03.501Z,95
2023-11-30T10:04:00.434Z,95
2023-11-30T10:06:00.195Z,95
2023-11-30T10:08:00.306Z,95
2023-11-30T10:10:00.270Z,95
2023-11-30T10:12:00.222Z,95
2023-11-30T10:14:00.926Z,94
2023-11-30T10:16:00.368Z,94
2023-11-30T10:18:00.285Z,94
2023-11-30T10:20:00.244Z,94
2023-11-30T10:22:00.101Z,94
2023-11-30T10:24:00.170Z,93
2023-11-30T10:26:00.114Z,92
2023-11-30T10:28:00.212Z,91
2023-11-30T10:30:00.283Z,91
2023-11-30T10:32:00.176Z,90
2023-11-30T10:34:00.233Z,90
2023-11-30T10:36:00.213Z,91
2023-11-30T10:38:00.115Z,90
2023-11-30T10:40:00.310Z,90
2023-11-30T10:42:00.106Z,90
2023-11-30T10:44:00.722Z,89
2023-11-30T10:46:00.270Z,89
2023-11-30T10:48:00.203Z,89
2023-11-30T10:50:00.309Z,91
2023-11-30T10:52:03.086Z,92
2023-11-30T10:54:00.308Z,91
2023-11-30T10:56:00.095Z,92
2023-11-30T10:58:00.188Z,90
2023-11-30T11:00:00.510Z,90
2023-11-30T11:02:00.249Z,90
2023-11-30T11:04:00.185Z,90
2023-11-30T11:06:00.086Z,90
2023-11-30T11:08:00.218Z,87
2023-11-30T11:10:02.392Z,89
2023-11-30T11:12:00.245Z,89
2023-11-30T11:14:00.139Z,89
2023-11-30T11:16:00.624Z,88
2023-11-30T11:18:00.155Z,88
2023-11-30T11:20:00.269Z,87
2023-11-30T11:22:00.124Z,88
2023-11-30T11:24:00.196Z,89
2023-11-30T11:26:00.089Z,86
2023-11-30T11:28:00.139Z,88
2023-11-30T11:30:00.417Z,86
2023-11-30T11:32:00.246Z,85
2023-11-30T11:34:00.138Z,85
2023-11-30T11:36:00.110Z,84
2023-11-30T11:38:00.343Z,79
2023-11-30T11:40:00.309Z,83
2023-11-30T11:42:00.085Z,82
2023-11-30T11:44:00.119Z,81
2023-11-30T11:46:00.245Z,78
2023-11-30T11:48:00.393Z,81
2023-11-30T11:50:00.237Z,80
2023-11-30T11:52:00.277Z,78
2023-11-30T11:54:00.099Z,80
2023-11-30T11:56:00.114Z,80
2023-11-30T11:58:00.194Z,80
2023-11-30T12:00:00.281Z,80
2023-11-30T12:02:00.215Z,79
2023-11-30T12:04:00.347Z,76
2023-11-30T12:06:00.082Z,76
2023-11-30T12:08:00.126Z,77
2023-11-30T12:10:00.360Z,79
2023-11-30T12:12:00.110Z,80
2023-11-30T12:14:00.126Z,78
2023-11-30T12:16:00.251Z,80
2023-11-30T12:18:00.157Z,79
2023-11-30T12:20:00.230Z,79
2023-11-30T12:22:00.238Z,77
2023-11-30T12:24:00.129Z,76
2023-11-30T12:26:00.258Z,76
2023-11-30T12:28:00.126Z,76
2023-11-30T12:30:00.299Z,77
2023-11-30T12:32:00.145Z,77
2023-11-30T12:34:00.135Z,75
2023-11-30T12:36:00.225Z,80
2023-11-30T12:38:00.234Z,76
2023-11-30T12:40:00.691Z,75
2023-11-30T12:42:01.080Z,77
2023-11-30T12:44:00.627Z,76
2023-11-30T12:46:00.308Z,76
2023-11-30T12:48:00.349Z,75
2023-11-30T12:50:00.407Z,75
2023-11-30T12:52:14.732Z,72
2023-11-30T12:54:00.153Z,74
2023-11-30T12:56:00.140Z,73
2023-11-30T12:58:00.185Z,75
2023-11-30T13:00:00.255Z,75
2023-11-30T13:02:00.250Z,74
2023-11-30T13:04:00.273Z,75
2023-11-30T13:06:00.187Z,75
2023-11-30T13:08:00.140Z,77
2023-11-30T13:10:00.288Z,78
2023-11-30T13:12:00.292Z,78
2023-11-30T13:14:00.125Z,78
2023-11-30T13:16:00.108Z,77
2023-11-30T13:18:00.269Z,76
2023-11-30T13:20:00.167Z,77
2023-11-30T13:22:00.108Z,76
2023-11-30T13:24:00.201Z,78
2023-11-30T13:26:00.090Z,78
2023-11-30T13:28:00.109Z,76
2023-11-30T13:30:00.342Z,76
2023-11-30T13:32:00.321Z,76
2023-11-30T13:34:00.088Z,76
2023-11-30T13:36:00.110Z,77
2023-11-30T13:38:00.256Z,77
2023-11-30T13:40:00.290Z,77
2023-11-30T13:42:00.082Z,76
2023-11-30T13:44:00.098Z,77
2023-11-30T13:46:00.218Z,77
2023-11-30T13:48:00.191Z,77
2023-11-30T13:50:00.205Z,78
2023-11-30T13:52:00.102Z,77
2023-11-30T13:54:00.187Z,78
2023-11-30T13:56:00.108Z,77
2023-11-30T13:58:00.104Z,77
2023-11-30T14:00:00.252Z,77
2023-11-30T14:02:00.212Z,76
2023-11-30T14:04:00.142Z,77
2023-11-30T14:06:00.118Z,76
2023-11-30T14:08:01.527Z,77
2023-11-30T14:10:00.348Z,77
2023-11-30T14:12:00.130Z,79
2023-11-30T14:14:00.172Z,82
2023-11-30T14:16:00.307Z,83
2023-11-30T14:18:00.164Z,85
2023-11-30T14:20:00.289Z,87
2023-11-30T14:22:00.139Z,88
2023-11-30T14:24:00.170Z,88
2023-11-30T14:26:00.081Z,89
2023-11-30T14:28:04.968Z,90
2023-11-30T14:30:00.257Z,90
2023-11-30T14:32:00.098Z,90
2023-11-30T14:34:00.194Z,90
2023-11-30T14:36:00.293Z,91
2023-11-30T14:38:00.272Z,91
2023-11-30T14:40:00.336Z,91
2023-11-30T14:42:00.248Z,91
2023-11-30T14:44:00.136Z,92
2023-11-30T14:46:00.179Z,92
2023-11-30T14:48:00.206Z,93
2023-11-30T14:50:00.342Z,93
2023-11-30T14:52:00.281Z,93
2023-11-30T14:54:00.262Z,93
2023-11-30T14:56:00.169Z,93
2023-11-30T14:58:00.335Z,93
2023-11-30T15:00:00.277Z,94
2023-11-30T15:02:00.262Z,94
2023-11-30T15:04:00.186Z,94
2023-11-30T15:06:00.113Z,94
2023-11-30T15:08:00.143Z,94
2023-11-30T15:10:00.349Z,94
2023-11-30T15:12:00.148Z,94
2023-11-30T15:14:00.221Z,95
2023-11-30T15:16:00.264Z,95
2023-11-30T15:18:00.257Z,95
2023-11-30T15:20:00.280Z,95
2023-11-30T15:22:00.300Z,95
2023-11-30T15:24:00.116Z,95
2023-11-30T15:26:00.078Z,95
2023-11-30T15:28:00.186Z,95
2023-11-30T15:30:00.393Z,95
2023-11-30T15:32:00.146Z,95
2023-11-30T15:34:00.279Z,95
2023-11-30T15:36:00.187Z,95
2023-11-30T15:38:00.118Z,95
2023-11-30T15:40:00.337Z,95
2023-11-30T15:42:00.202Z,95
2023-11-30T15:44:00.135Z,95
2023-11-30T15:46:00.217Z,95
2023-11-30T15:48:00.226Z,95
2023-11-30T15:50:00.337Z,95
2023-11-30T15:52:00.199Z,95
2023-11-30T15:54:00.121Z,96
2023-11-30T15:56:00.205Z,96
2023-11-30T15:58:00.191Z,96
2023-11-30T16:00:00.336Z,96
2023-11-30T16:02:00.185Z,96
2023-11-30T16:04:00.507Z,96
2023-11-30T16:06:00.243Z,96
2023-11-30T16:08:00.102Z,96
2023-11-30T16:10:00.241Z,96
2023-11-30T16:12:00.111Z,96
2023-11-30T16:14:00.182Z,96
2023-11-30T16:16:00.161Z,96
2023-11-30T16:18:00.140Z,96
2023-11-30T16:20:00.253Z,96
2023-11-30T16:22:00.183Z,96
2023-11-30T16:24:00.120Z,96
2023-11-30T16:26:00.083Z,96
2023-11-30T16:28:00.181Z,97
2023-11-30T16:30:00.355Z,97
2023-11-30T16:32:00.157Z,97
2023-11-30T16:34:00.142Z,96
2023-11-30T16:36:00.092Z,96
2023-11-30T16:38:00.246Z,96
2023-11-30T16:40:00.400Z,97
2023-11-30T16:42:00.116Z,97
2023-11-30T16:44:00.303Z,97
2023-11-30T16:46:00.388Z,96
2023-11-30T16:48:00.426Z,97
2023-11-30T16:50:00.306Z,96
2023-11-30T16:52:00.342Z,97
2023-11-30T16:54:00.090Z,97
2023-11-30T16:56:00.152Z,97
2023-11-30T16:58:00.115Z,97
2023-11-30T17:00:00.306Z,97
2023-11-30T17:02:00.138Z,97
2023-11-30T17:04:00.283Z,97
2023-11-30T17:06:00.080Z,97
2023-11-30T17:08:00.283Z,97
2023-11-30T17:10:00.557Z,97
2023-11-30T17:12:00.142Z,97
2023-11-30T17:14:00.360Z,97
2023-11-30T17:16:00.172Z,97
2023-11-30T17:18:00.197Z,97
2023-11-30T17:20:00.346Z,97
2023-11-30T17:22:00.117Z,97
2023-11-30T17:24:00.104Z,97
2023-11-30T17:26:00.182Z,97
2023-11-30T17:28:00.238Z,97
2023-11-30T17:30:00.187Z,97
2023-11-30T17:32:00.229Z,98
2023-11-30T17:34:00.298Z,97
2023-11-30T17:36:00.097Z,98
2023-11-30T17:38:00.108Z,98
2023-11-30T17:40:00.344Z,98
2023-11-30T17:42:00.109Z,98
2023-11-30T17:44:00.093Z,98
2023-11-30T17:46:00.183Z,98
2023-11-30T17:48:00.131Z,98
2023-11-30T17:50:01.542Z,97
2023-11-30T17:52:00.098Z,98
2023-11-30T17:54:00.120Z,98
2023-11-30T17:56:00.151Z,98
2023-11-30T17:58:00.226Z,98
2023-11-30T18:00:00.440Z,98
2023-11-30T18:02:00.186Z,98
2023-11-30T18:04:00.149Z,98
2023-11-30T18:06:00.081Z,98
2023-11-30T18:08:00.170Z,98
2023-11-30T18:10:00.218Z,98
2023-11-30T18:12:00.098Z,98
2023-11-30T18:14:00.164Z,98
2023-11-30T18:16:03.014Z,98
2023-11-30T18:18:00.116Z,98
2023-11-30T18:20:00.283Z,98
2023-11-30T18:22:00.237Z,98
2023-11-30T18:24:00.207Z,98
2023-11-30T18:26:00.269Z,98
2023-11-30T18:28:00.135Z,98
2023-11-30T18:30:00.280Z,98
2023-11-30T18:32:00.292Z,98
2023-11-30T18:34:00.164Z,98
2023-11-30T18:36:00.165Z,98
2023-11-30T18:38:02.920Z,98
2023-11-30T18:40:00.410Z,98
2023-11-30T18:42:00.096Z,98
2023-11-30T18:44:00.153Z,98
2023-11-30T18:46:00.187Z,98
2023-11-30T18:48:00.156Z,98
2023-11-30T18:50:00.250Z,98
2023-11-30T18:52:00.266Z,98
2023-11-30T18:54:00.226Z,98
2023-11-30T18:56:00.106Z,98
2023-11-30T18:58:00.141Z,98
2023-11-30T19:00:00.263Z,98
2023-11-30T19:02:00.180Z,98
2023-11-30T19:04:00.305Z,98
2023-11-30T19:06:00.114Z,98
2023-11-30T19:08:00.236Z,98
2023-11-30T19:10:00.303Z,98
2023-11-30T19:12:00.120Z,98
2023-11-30T19:14:00.236Z,98
2023-11-30T19:16:00.230Z,98
2023-11-30T19:18:00.322Z,98
2023-11-30T19:20:00.278Z,98
2023-11-30T19:22:00.114Z,98
2023-11-30T19:24:00.103Z,98
2023-11-30T19:26:00.100Z,98
2023-11-30T19:28:00.267Z,98
2023-11-30T19:30:00.287Z,98
2023-11-30T19:32:00.123Z,98
2023-11-30T19:34:00.305Z,98
2023-11-30T19:36:00.271Z,98
2023-11-30T19:38:00.265Z,98
2023-11-30T19:40:01.592Z,98
2023-11-30T19:42:00.225Z,98
2023-11-30T19:44:00.238Z,98
2023-11-30T19:46:02.904Z,98
2023-11-30T19:48:00.382Z,98
2023-11-30T19:50:00.273Z,98
2023-11-30T19:52:00.140Z,98
2023-11-30T19:54:00.299Z,98
2023-11-30T19:56:00.245Z,98
2023-11-30T19:58:00.284Z,98
2023-11-30T20:00:00.265Z,98
2023-11-30T20:02:00.156Z,98
2023-11-30T20:04:00.349Z,98
2023-11-30T20:06:00.218Z,98
2023-11-30T20:08:00.156Z,98
2023-11-30T20:10:00.356Z,98
2023-11-30T20:12:00.140Z,98
2023-11-30T20:14:00.223Z,98
2023-11-30T20:16:00.238Z,98
2023-11-30T20:18:00.244Z,98
2023-11-30T20:20:00.350Z,98
2023-11-30T20:22:00.211Z,98
2023-11-30T20:24:00.234Z,98
2023-11-30T20:26:00.081Z,98
2023-11-30T20:28:00.341Z,98
2023-11-30T20:30:00.210Z,98
2023-11-30T20:32:00.187Z,98
2023-11-30T20:34:00.268Z,98
2023-11-30T20:36:00.096Z,98
2023-11-30T20:38:00.224Z,98
2023-11-30T20:40:00.338Z,98
2023-11-30T20:42:00.340Z,98
2023-11-30T20:44:00.202Z,98
2023-11-30T20:46:00.194Z,98
2023-11-30T20:48:00.446Z,98
2023-11-30T20:50:00.295Z,98
2023-11-30T20:52:00.204Z,98
2023-11-30T20:54:00.078Z,98
2023-11-30T20:56:00.112Z,98
2023-11-30T20:58:00.327Z,98
2023-11-30T21:00:00.277Z,98
2023-11-30T21:02:00.318Z,98
2023-11-30T21:04:00.341Z,98
2023-11-30T21:06:00.080Z,98
2023-11-30T21:08:00.107Z,98
2023-11-30T21:10:00.312Z,98
2023-11-30T21:12:00.137Z,98
2023-11-30T21:14:00.103Z,98
2023-11-30T21:16:00.168Z,98
2023-11-30T21:18:00.339Z,98
2023-11-30T21:20:00.253Z,98
2023-11-30T21:22:00.134Z,98
2023-11-30T21:24:00.154Z,98
2023-11-30T21:26:00.108Z,98
2023-11-30T21:28:00.327Z,98
2023-11-30T21:30:00.243Z,98
2023-11-30T21:32:00.246Z,98
2023-11-30T21:34:00.143Z,98
2023-11-30T21:36:00.135Z,98
2023-11-30T21:38:00.150Z,98
2023-11-30T21:40:00.346Z,98
2023-11-30T21:42:00.082Z,98
2023-11-30T21:44:00.126Z,98
2023-11-30T21:46:00.254Z,98
2023-11-30T21:48:00.273Z,98
2023-11-30T21:50:00.278Z,98
2023-11-30T21:52:00.158Z,98
2023-11-30T21:54:00.091Z,98
2023-11-30T21:56:00.166Z,98
2023-11-30T21:58:00.165Z,98
2023-11-30T22:00:00.298Z,98
2023-11-30T22:02:00.285Z,98
2023-11-30T22:04:00.385Z,98
2023-11-30T22:06:00.085Z,98
2023-11-30T22:08:00.259Z,98
2023-11-30T22:10:00.355Z,98
2023-11-30T22:12:00.091Z,98
2023-11-30T22:14:00.131Z,98
2023-11-30T22:16:06.588Z,98
2023-11-30T22:18:00.217Z,98
2023-11-30T22:20:00.291Z,98
2023-11-30T22:22:00.090Z,98
2023-11-30T22:24:00.242Z,98
2023-11-30T22:26:04.205Z,98
2023-11-30T22:28:00.131Z,98
2023-11-30T22:30:00.155Z,97
2023-11-30T22:32:00.242Z,98
2023-11-30T22:34:00.203Z,98
2023-11-30T22:36:00.238Z,98
2023-11-30T22:38:00.235Z,98
2023-11-30T22:40:00.282Z,98
2023-11-30T22:42:00.085Z,98
2023-11-30T22:44:00.281Z,98
2023-11-30T22:46:00.231Z,98
2023-11-30T22:48:00.250Z,98
2023-11-30T22:50:00.269Z,98
2023-11-30T22:52:00.272Z,98
2023-11-30T22:54:00.162Z,98
2023-11-30T22:56:00.189Z,98
2023-11-30T22:58:00.164Z,98
2023-11-30T23:00:00.328Z,98
2023-11-30T23:02:00.349Z,98
2023-11-30T23:04:00.300Z,98
2023-11-30T23:06:00.084Z,98
2023-11-30T23:08:00.105Z,98
2023-11-30T23:10:00.306Z,98
2023-11-30T23:12:00.112Z,98
2023-11-30T23:14:00.082Z,98
2023-11-30T23:16:00.145Z,98
2023-11-30T23:18:00.221Z,98
2023-11-30T23:20:00.169Z,98
2023-11-30T23:22:00.174Z,98
2023-11-30T23:24:00.212Z,98
2023-11-30T23:26:00.124Z,98
2023-11-30T23:28:00.135Z,98
2023-11-30T23:30:00.199Z,98
2023-11-30T23:32:00.103Z,98
2023-11-30T23:34:00.161Z,98
2023-11-30T23:36:00.276Z,98
2023-11-30T23:38:00.243Z,98
2023-11-30T23:40:00.310Z,98
2023-11-30T23:42:00.084Z,98
2023-11-30T23:44:00.091Z,98
2023-11-30T23:46:00.097Z,98
2023-11-30T23:48:00.105Z,98
2023-11-30T23:50:00.252Z,98
2023-11-30T23:52:00.134Z,98
2023-11-30T23:54:00.099Z,98
2023-11-30T23:56:00.092Z,98
2023-11-30T23:58:00.158Z,98
